sensor_id;sensor_type;location;lat;lon;timestamp;P1;durP1;ratioP1;P2;durP2;ratioP2
28766;SDS011;15921;52.034;20.650;2023-05-07T00:01:36;8.43;;;5.25;;
28766;SDS011;15921;52.034;20.650;2023-05-07T00:04:02;11.57;;;5.63;;
28766;SDS011;15921;52.034;20.650;2023-05-07T00:06:28;8.68;;;5.70;;
28766;SDS011;15921;52.034;20.650;2023-05-07T00:08:54;9.23;;;5.07;;
28766;SDS011;15921;52.034;20.650;2023-05-07T00:11:21;8.77;;;4.82;;
28766;SDS011;15921;52.034;20.650;2023-05-07T00:13:47;11.05;;;5.32;;
28766;SDS011;15921;52.034;20.650;2023-05-07T00:16:13;10.38;;;4.80;;
28766;SDS011;15921;52.034;20.650;2023-05-07T00:18:39;13.48;;;5.72;;
28766;SDS011;15921;52.034;20.650;2023-05-07T00:21:05;9.77;;;5.03;;
28766;SDS011;15921;52.034;20.650;2023-05-07T00:23:30;12.23;;;5.28;;
28766;SDS011;15921;52.034;20.650;2023-05-07T00:25:56;9.75;;;5.20;;
28766;SDS011;15921;52.034;20.650;2023-05-07T00:28:22;9.32;;;5.00;;
28766;SDS011;15921;52.034;20.650;2023-05-07T00:30:47;8.18;;;5.05;;
28766;SDS011;15921;52.034;20.650;2023-05-07T00:33:13;10.13;;;4.82;;
28766;SDS011;15921;52.034;20.650;2023-05-07T00:35:39;11.02;;;5.78;;
28766;SDS011;15921;52.034;20.650;2023-05-07T00:38:04;7.85;;;4.95;;
28766;SDS011;15921;52.034;20.650;2023-05-07T00:40:30;8.80;;;4.53;;
28766;SDS011;15921;52.034;20.650;2023-05-07T00:42:56;8.00;;;4.90;;
28766;SDS011;15921;52.034;20.650;2023-05-07T00:45:24;9.55;;;5.20;;
28766;SDS011;15921;52.034;20.650;2023-05-07T00:47:54;9.40;;;4.85;;
28766;SDS011;15921;52.034;20.650;2023-05-07T00:50:23;8.07;;;4.72;;
28766;SDS011;15921;52.034;20.650;2023-05-07T00:52:50;8.70;;;4.88;;
28766;SDS011;15921;52.034;20.650;2023-05-07T00:55:15;10.73;;;5.80;;
28766;SDS011;15921;52.034;20.650;2023-05-07T00:57:41;9.82;;;5.20;;
28766;SDS011;15921;52.034;20.650;2023-05-07T01:00:08;8.98;;;4.65;;
28766;SDS011;15921;52.034;20.650;2023-05-07T01:02:35;9.15;;;5.30;;
28766;SDS011;15921;52.034;20.650;2023-05-07T01:05:01;12.70;;;5.35;;
28766;SDS011;15921;52.034;20.650;2023-05-07T01:07:29;7.75;;;4.93;;
28766;SDS011;15921;52.034;20.650;2023-05-07T01:09:57;8.40;;;4.47;;
28766;SDS011;15921;52.034;20.650;2023-05-07T01:12:23;12.38;;;4.80;;
28766;SDS011;15921;52.034;20.650;2023-05-07T01:14:49;8.93;;;4.70;;
28766;SDS011;15921;52.034;20.650;2023-05-07T01:17:16;7.00;;;4.93;;
28766;SDS011;15921;52.034;20.650;2023-05-07T01:19:42;7.07;;;4.50;;
28766;SDS011;15921;52.034;20.650;2023-05-07T01:22:09;7.43;;;4.75;;
28766;SDS011;15921;52.034;20.650;2023-05-07T01:24:36;7.47;;;4.40;;
28766;SDS011;15921;52.034;20.650;2023-05-07T01:27:02;7.72;;;4.57;;
28766;SDS011;15921;52.034;20.650;2023-05-07T01:29:28;7.93;;;4.68;;
28766;SDS011;15921;52.034;20.650;2023-05-07T01:31:58;7.53;;;4.53;;
28766;SDS011;15921;52.034;20.650;2023-05-07T01:34:25;9.35;;;4.25;;
28766;SDS011;15921;52.034;20.650;2023-05-07T01:36:54;8.75;;;5.10;;
28766;SDS011;15921;52.034;20.650;2023-05-07T01:39:21;8.13;;;4.85;;
28766;SDS011;15921;52.034;20.650;2023-05-07T01:41:49;8.13;;;5.03;;
28766;SDS011;15921;52.034;20.650;2023-05-07T01:44:15;8.00;;;5.55;;
28766;SDS011;15921;52.034;20.650;2023-05-07T01:46:43;8.23;;;4.60;;
28766;SDS011;15921;52.034;20.650;2023-05-07T01:49:09;9.60;;;4.95;;
28766;SDS011;15921;52.034;20.650;2023-05-07T01:51:35;7.50;;;4.57;;
28766;SDS011;15921;52.034;20.650;2023-05-07T01:54:01;8.38;;;4.32;;
28766;SDS011;15921;52.034;20.650;2023-05-07T01:56:27;9.88;;;4.65;;
28766;SDS011;15921;52.034;20.650;2023-05-07T01:58:53;10.75;;;5.50;;
28766;SDS011;15921;52.034;20.650;2023-05-07T02:01:18;7.65;;;4.65;;
28766;SDS011;15921;52.034;20.650;2023-05-07T02:03:44;10.18;;;5.18;;
28766;SDS011;15921;52.034;20.650;2023-05-07T02:06:10;6.55;;;4.40;;
28766;SDS011;15921;52.034;20.650;2023-05-07T02:08:35;8.50;;;5.35;;
28766;SDS011;15921;52.034;20.650;2023-05-07T02:11:01;11.02;;;5.32;;
28766;SDS011;15921;52.034;20.650;2023-05-07T02:13:31;10.02;;;4.78;;
28766;SDS011;15921;52.034;20.650;2023-05-07T02:15:57;8.65;;;5.05;;
28766;SDS011;15921;52.034;20.650;2023-05-07T02:18:23;7.90;;;4.57;;
28766;SDS011;15921;52.034;20.650;2023-05-07T02:20:49;7.63;;;4.57;;
28766;SDS011;15921;52.034;20.650;2023-05-07T02:23:15;7.68;;;4.75;;
28766;SDS011;15921;52.034;20.650;2023-05-07T02:25:40;12.18;;;4.55;;
28766;SDS011;15921;52.034;20.650;2023-05-07T02:28:06;10.82;;;4.38;;
28766;SDS011;15921;52.034;20.650;2023-05-07T02:30:32;8.32;;;4.68;;
28766;SDS011;15921;52.034;20.650;2023-05-07T02:32:58;7.68;;;4.47;;
28766;SDS011;15921;52.034;20.650;2023-05-07T02:35:24;6.45;;;4.60;;
28766;SDS011;15921;52.034;20.650;2023-05-07T02:37:50;7.80;;;4.68;;
28766;SDS011;15921;52.034;20.650;2023-05-07T02:40:16;7.45;;;4.40;;
28766;SDS011;15921;52.034;20.650;2023-05-07T02:42:41;9.90;;;4.43;;
28766;SDS011;15921;52.034;20.650;2023-05-07T02:45:07;6.50;;;4.22;;
28766;SDS011;15921;52.034;20.650;2023-05-07T02:47:33;10.45;;;4.72;;
28766;SDS011;15921;52.034;20.650;2023-05-07T02:49:59;6.57;;;3.97;;
28766;SDS011;15921;52.034;20.650;2023-05-07T02:52:25;8.70;;;4.55;;
28766;SDS011;15921;52.034;20.650;2023-05-07T02:54:50;9.18;;;4.40;;
28766;SDS011;15921;52.034;20.650;2023-05-07T02:57:16;7.38;;;4.28;;
28766;SDS011;15921;52.034;20.650;2023-05-07T02:59:42;10.88;;;4.47;;
28766;SDS011;15921;52.034;20.650;2023-05-07T03:02:08;6.07;;;3.85;;
28766;SDS011;15921;52.034;20.650;2023-05-07T03:04:34;10.23;;;4.35;;
28766;SDS011;15921;52.034;20.650;2023-05-07T03:06:59;7.40;;;3.90;;
28766;SDS011;15921;52.034;20.650;2023-05-07T03:09:25;11.93;;;4.05;;
28766;SDS011;15921;52.034;20.650;2023-05-07T03:11:51;7.70;;;3.95;;
28766;SDS011;15921;52.034;20.650;2023-05-07T03:14:17;5.65;;;3.38;;
28766;SDS011;15921;52.034;20.650;2023-05-07T03:16:42;5.82;;;3.60;;
28766;SDS011;15921;52.034;20.650;2023-05-07T03:19:08;4.75;;;3.90;;
28766;SDS011;15921;52.034;20.650;2023-05-07T03:21:34;6.70;;;4.38;;
28766;SDS011;15921;52.034;20.650;2023-05-07T03:23:59;8.80;;;3.67;;
28766;SDS011;15921;52.034;20.650;2023-05-07T03:26:25;6.15;;;3.45;;
28766;SDS011;15921;52.034;20.650;2023-05-07T03:28:51;4.30;;;3.35;;
28766;SDS011;15921;52.034;20.650;2023-05-07T03:31:17;6.00;;;4.18;;
28766;SDS011;15921;52.034;20.650;2023-05-07T03:33:50;7.20;;;3.40;;
28766;SDS011;15921;52.034;20.650;2023-05-07T03:36:20;7.63;;;4.07;;
28766;SDS011;15921;52.034;20.650;2023-05-07T03:38:46;9.57;;;3.63;;
28766;SDS011;15921;52.034;20.650;2023-05-07T03:41:12;6.93;;;3.90;;
28766;SDS011;15921;52.034;20.650;2023-05-07T03:43:38;4.85;;;3.33;;
28766;SDS011;15921;52.034;20.650;2023-05-07T03:46:04;7.22;;;3.88;;
28766;SDS011;15921;52.034;20.650;2023-05-07T03:48:30;7.53;;;3.50;;
28766;SDS011;15921;52.034;20.650;2023-05-07T03:50:56;6.43;;;3.70;;
28766;SDS011;15921;52.034;20.650;2023-05-07T03:53:22;7.75;;;3.72;;
28766;SDS011;15921;52.034;20.650;2023-05-07T03:55:48;5.15;;;3.75;;
28766;SDS011;15921;52.034;20.650;2023-05-07T03:58:14;4.30;;;3.30;;
28766;SDS011;15921;52.034;20.650;2023-05-07T04:00:40;6.97;;;3.40;;
28766;SDS011;15921;52.034;20.650;2023-05-07T04:03:06;6.05;;;3.47;;
28766;SDS011;15921;52.034;20.650;2023-05-07T04:05:32;5.38;;;3.63;;
28766;SDS011;15921;52.034;20.650;2023-05-07T04:07:58;8.95;;;3.67;;
28766;SDS011;15921;52.034;20.650;2023-05-07T04:10:24;5.85;;;3.40;;
28766;SDS011;15921;52.034;20.650;2023-05-07T04:12:50;8.30;;;3.83;;
28766;SDS011;15921;52.034;20.650;2023-05-07T04:15:16;6.68;;;3.50;;
28766;SDS011;15921;52.034;20.650;2023-05-07T04:17:41;5.53;;;3.10;;
28766;SDS011;15921;52.034;20.650;2023-05-07T04:20:12;5.63;;;3.42;;
28766;SDS011;15921;52.034;20.650;2023-05-07T04:22:41;5.95;;;3.25;;
28766;SDS011;15921;52.034;20.650;2023-05-07T04:25:08;4.93;;;3.35;;
28766;SDS011;15921;52.034;20.650;2023-05-07T04:27:34;5.50;;;2.75;;
28766;SDS011;15921;52.034;20.650;2023-05-07T04:30:00;4.15;;;2.90;;
28766;SDS011;15921;52.034;20.650;2023-05-07T04:32:27;6.80;;;3.08;;
28766;SDS011;15921;52.034;20.650;2023-05-07T04:34:54;6.93;;;3.50;;
28766;SDS011;15921;52.034;20.650;2023-05-07T04:37:23;7.95;;;3.50;;
28766;SDS011;15921;52.034;20.650;2023-05-07T04:39:48;4.13;;;2.83;;
28766;SDS011;15921;52.034;20.650;2023-05-07T04:42:17;5.32;;;3.13;;
28766;SDS011;15921;52.034;20.650;2023-05-07T04:44:44;7.25;;;3.53;;
28766;SDS011;15921;52.034;20.650;2023-05-07T04:47:10;5.72;;;3.15;;
28766;SDS011;15921;52.034;20.650;2023-05-07T04:49:37;3.88;;;2.90;;
28766;SDS011;15921;52.034;20.650;2023-05-07T04:52:03;6.90;;;3.47;;
28766;SDS011;15921;52.034;20.650;2023-05-07T04:54:29;4.53;;;3.30;;
28766;SDS011;15921;52.034;20.650;2023-05-07T04:56:55;5.78;;;3.47;;
28766;SDS011;15921;52.034;20.650;2023-05-07T04:59:21;4.28;;;3.00;;
28766;SDS011;15921;52.034;20.650;2023-05-07T05:01:47;7.13;;;3.20;;
28766;SDS011;15921;52.034;20.650;2023-05-07T05:04:12;4.88;;;3.47;;
28766;SDS011;15921;52.034;20.650;2023-05-07T05:06:38;4.95;;;2.85;;
28766;SDS011;15921;52.034;20.650;2023-05-07T05:09:04;4.47;;;2.80;;
28766;SDS011;15921;52.034;20.650;2023-05-07T05:11:30;6.93;;;2.88;;
28766;SDS011;15921;52.034;20.650;2023-05-07T05:13:56;3.95;;;2.63;;
28766;SDS011;15921;52.034;20.650;2023-05-07T05:16:23;5.13;;;2.90;;
28766;SDS011;15921;52.034;20.650;2023-05-07T05:18:49;3.90;;;2.75;;
28766;SDS011;15921;52.034;20.650;2023-05-07T05:21:17;5.10;;;2.72;;
28766;SDS011;15921;52.034;20.650;2023-05-07T05:23:42;6.15;;;3.22;;
28766;SDS011;15921;52.034;20.650;2023-05-07T05:26:08;6.13;;;3.22;;
28766;SDS011;15921;52.034;20.650;2023-05-07T05:28:34;4.50;;;3.10;;
28766;SDS011;15921;52.034;20.650;2023-05-07T05:30:59;6.05;;;3.38;;
28766;SDS011;15921;52.034;20.650;2023-05-07T05:33:25;4.63;;;3.25;;
28766;SDS011;15921;52.034;20.650;2023-05-07T05:35:51;4.82;;;3.00;;
28766;SDS011;15921;52.034;20.650;2023-05-07T05:38:17;5.70;;;3.63;;
28766;SDS011;15921;52.034;20.650;2023-05-07T05:40:42;6.03;;;3.05;;
28766;SDS011;15921;52.034;20.650;2023-05-07T05:43:08;5.13;;;2.60;;
28766;SDS011;15921;52.034;20.650;2023-05-07T05:45:34;4.18;;;2.97;;
28766;SDS011;15921;52.034;20.650;2023-05-07T05:48:00;4.50;;;3.03;;
28766;SDS011;15921;52.034;20.650;2023-05-07T05:50:25;5.57;;;3.08;;
28766;SDS011;15921;52.034;20.650;2023-05-07T05:52:51;6.57;;;2.80;;
28766;SDS011;15921;52.034;20.650;2023-05-07T05:55:17;4.63;;;2.65;;
28766;SDS011;15921;52.034;20.650;2023-05-07T05:57:42;4.78;;;2.88;;
28766;SDS011;15921;52.034;20.650;2023-05-07T06:00:08;3.83;;;2.67;;
28766;SDS011;15921;52.034;20.650;2023-05-07T06:02:35;3.28;;;2.35;;
28766;SDS011;15921;52.034;20.650;2023-05-07T06:05:00;4.20;;;2.78;;
28766;SDS011;15921;52.034;20.650;2023-05-07T06:07:26;4.93;;;2.70;;
28766;SDS011;15921;52.034;20.650;2023-05-07T06:09:51;4.57;;;2.90;;
28766;SDS011;15921;52.034;20.650;2023-05-07T06:12:20;3.58;;;2.28;;
28766;SDS011;15921;52.034;20.650;2023-05-07T06:14:46;3.60;;;2.70;;
28766;SDS011;15921;52.034;20.650;2023-05-07T06:17:12;3.95;;;2.63;;
28766;SDS011;15921;52.034;20.650;2023-05-07T06:19:38;4.10;;;2.90;;
28766;SDS011;15921;52.034;20.650;2023-05-07T06:22:03;7.65;;;3.30;;
28766;SDS011;15921;52.034;20.650;2023-05-07T06:24:29;5.13;;;2.60;;
28766;SDS011;15921;52.034;20.650;2023-05-07T06:26:55;3.28;;;2.28;;
28766;SDS011;15921;52.034;20.650;2023-05-07T06:29:20;4.75;;;2.60;;
28766;SDS011;15921;52.034;20.650;2023-05-07T06:31:46;5.80;;;2.53;;
28766;SDS011;15921;52.034;20.650;2023-05-07T06:34:12;4.05;;;2.60;;
28766;SDS011;15921;52.034;20.650;2023-05-07T06:36:40;4.13;;;2.47;;
28766;SDS011;15921;52.034;20.650;2023-05-07T06:39:06;4.75;;;2.28;;
28766;SDS011;15921;52.034;20.650;2023-05-07T06:41:32;2.65;;;2.08;;
28766;SDS011;15921;52.034;20.650;2023-05-07T06:43:58;2.97;;;2.28;;
28766;SDS011;15921;52.034;20.650;2023-05-07T06:46:23;5.03;;;2.38;;
28766;SDS011;15921;52.034;20.650;2023-05-07T06:48:49;3.70;;;2.20;;
28766;SDS011;15921;52.034;20.650;2023-05-07T06:51:15;2.65;;;1.70;;
28766;SDS011;15921;52.034;20.650;2023-05-07T06:53:40;2.95;;;1.90;;
28766;SDS011;15921;52.034;20.650;2023-05-07T06:56:06;7.50;;;2.00;;
28766;SDS011;15921;52.034;20.650;2023-05-07T06:58:32;8.23;;;1.85;;
28766;SDS011;15921;52.034;20.650;2023-05-07T07:00:58;2.67;;;1.92;;
28766;SDS011;15921;52.034;20.650;2023-05-07T07:03:23;3.13;;;2.20;;
28766;SDS011;15921;52.034;20.650;2023-05-07T07:05:52;5.20;;;2.22;;
28766;SDS011;15921;52.034;20.650;2023-05-07T07:08:18;2.58;;;2.05;;
28766;SDS011;15921;52.034;20.650;2023-05-07T07:10:46;6.20;;;2.33;;
28766;SDS011;15921;52.034;20.650;2023-05-07T07:13:12;4.25;;;2.70;;
28766;SDS011;15921;52.034;20.650;2023-05-07T07:15:38;6.68;;;4.95;;
28766;SDS011;15921;52.034;20.650;2023-05-07T07:18:05;8.48;;;5.43;;
28766;SDS011;15921;52.034;20.650;2023-05-07T07:20:31;11.20;;;7.50;;
28766;SDS011;15921;52.034;20.650;2023-05-07T07:22:57;16.98;;;7.32;;
28766;SDS011;15921;52.034;20.650;2023-05-07T07:25:23;7.05;;;3.05;;
28766;SDS011;15921;52.034;20.650;2023-05-07T07:27:49;5.22;;;2.60;;
28766;SDS011;15921;52.034;20.650;2023-05-07T07:30:15;4.95;;;3.50;;
28766;SDS011;15921;52.034;20.650;2023-05-07T07:32:40;5.45;;;3.05;;
28766;SDS011;15921;52.034;20.650;2023-05-07T07:35:06;4.03;;;1.92;;
28766;SDS011;15921;52.034;20.650;2023-05-07T07:37:32;4.68;;;2.45;;
28766;SDS011;15921;52.034;20.650;2023-05-07T07:39:58;4.22;;;2.88;;
28766;SDS011;15921;52.034;20.650;2023-05-07T07:42:23;5.57;;;3.13;;
28766;SDS011;15921;52.034;20.650;2023-05-07T07:44:49;5.45;;;3.40;;
28766;SDS011;15921;52.034;20.650;2023-05-07T07:47:15;5.43;;;3.53;;
28766;SDS011;15921;52.034;20.650;2023-05-07T07:49:40;9.48;;;5.43;;
28766;SDS011;15921;52.034;20.650;2023-05-07T07:52:06;9.13;;;5.88;;
28766;SDS011;15921;52.034;20.650;2023-05-07T07:54:32;5.72;;;3.08;;
28766;SDS011;15921;52.034;20.650;2023-05-07T07:56:57;6.28;;;3.28;;
28766;SDS011;15921;52.034;20.650;2023-05-07T07:59:23;4.05;;;2.60;;
28766;SDS011;15921;52.034;20.650;2023-05-07T08:01:49;5.93;;;2.75;;
28766;SDS011;15921;52.034;20.650;2023-05-07T08:04:17;3.50;;;2.05;;
28766;SDS011;15921;52.034;20.650;2023-05-07T08:06:42;3.67;;;2.30;;
28766;SDS011;15921;52.034;20.650;2023-05-07T08:09:08;3.55;;;2.20;;
28766;SDS011;15921;52.034;20.650;2023-05-07T08:11:34;6.22;;;3.25;;
28766;SDS011;15921;52.034;20.650;2023-05-07T08:14:00;6.05;;;3.30;;
28766;SDS011;15921;52.034;20.650;2023-05-07T08:16:26;5.45;;;3.65;;
28766;SDS011;15921;52.034;20.650;2023-05-07T08:18:52;6.28;;;2.88;;
28766;SDS011;15921;52.034;20.650;2023-05-07T08:21:17;7.10;;;2.95;;
28766;SDS011;15921;52.034;20.650;2023-05-07T08:23:43;3.70;;;2.45;;
28766;SDS011;15921;52.034;20.650;2023-05-07T08:26:09;4.68;;;2.78;;
28766;SDS011;15921;52.034;20.650;2023-05-07T08:28:34;3.22;;;2.38;;
28766;SDS011;15921;52.034;20.650;2023-05-07T08:31:00;6.38;;;2.22;;
28766;SDS011;15921;52.034;20.650;2023-05-07T08:33:26;4.18;;;2.63;;
28766;SDS011;15921;52.034;20.650;2023-05-07T08:35:52;5.18;;;2.00;;
28766;SDS011;15921;52.034;20.650;2023-05-07T08:38:18;9.60;;;2.72;;
28766;SDS011;15921;52.034;20.650;2023-05-07T08:40:43;6.78;;;3.35;;
28766;SDS011;15921;52.034;20.650;2023-05-07T08:43:11;8.35;;;3.15;;
28766;SDS011;15921;52.034;20.650;2023-05-07T08:45:39;3.85;;;2.30;;
28766;SDS011;15921;52.034;20.650;2023-05-07T08:48:10;6.53;;;2.42;;
28766;SDS011;15921;52.034;20.650;2023-05-07T08:50:40;3.20;;;2.22;;
28766;SDS011;15921;52.034;20.650;2023-05-07T08:53:06;3.70;;;2.38;;
28766;SDS011;15921;52.034;20.650;2023-05-07T08:55:32;6.07;;;2.90;;
28766;SDS011;15921;52.034;20.650;2023-05-07T08:57:58;6.00;;;2.22;;
28766;SDS011;15921;52.034;20.650;2023-05-07T09:00:24;8.73;;;3.17;;
28766;SDS011;15921;52.034;20.650;2023-05-07T09:02:50;4.10;;;2.90;;
28766;SDS011;15921;52.034;20.650;2023-05-07T09:05:17;3.35;;;2.38;;
28766;SDS011;15921;52.034;20.650;2023-05-07T09:07:42;3.30;;;2.20;;
28766;SDS011;15921;52.034;20.650;2023-05-07T09:10:08;5.85;;;2.00;;
28766;SDS011;15921;52.034;20.650;2023-05-07T09:12:34;4.40;;;2.88;;
28766;SDS011;15921;52.034;20.650;2023-05-07T09:15:03;4.28;;;2.35;;
28766;SDS011;15921;52.034;20.650;2023-05-07T09:17:29;8.77;;;2.97;;
28766;SDS011;15921;52.034;20.650;2023-05-07T09:19:54;8.90;;;2.83;;
28766;SDS011;15921;52.034;20.650;2023-05-07T09:22:20;4.20;;;2.35;;
28766;SDS011;15921;52.034;20.650;2023-05-07T09:24:50;5.47;;;2.97;;
28766;SDS011;15921;52.034;20.650;2023-05-07T09:27:17;5.18;;;2.50;;
28766;SDS011;15921;52.034;20.650;2023-05-07T09:29:43;5.13;;;3.00;;
28766;SDS011;15921;52.034;20.650;2023-05-07T09:32:09;3.67;;;2.65;;
28766;SDS011;15921;52.034;20.650;2023-05-07T09:34:35;5.07;;;2.88;;
28766;SDS011;15921;52.034;20.650;2023-05-07T09:37:02;5.13;;;3.03;;
28766;SDS011;15921;52.034;20.650;2023-05-07T09:39:39;7.70;;;2.42;;
28766;SDS011;15921;52.034;20.650;2023-05-07T09:42:06;5.03;;;3.17;;
28766;SDS011;15921;52.034;20.650;2023-05-07T09:44:32;5.18;;;3.38;;
28766;SDS011;15921;52.034;20.650;2023-05-07T09:46:59;5.85;;;3.28;;
28766;SDS011;15921;52.034;20.650;2023-05-07T09:49:25;6.10;;;3.05;;
28766;SDS011;15921;52.034;20.650;2023-05-07T09:51:55;10.63;;;3.17;;
28766;SDS011;15921;52.034;20.650;2023-05-07T09:54:24;6.75;;;3.28;;
28766;SDS011;15921;52.034;20.650;2023-05-07T09:56:51;4.22;;;2.75;;
28766;SDS011;15921;52.034;20.650;2023-05-07T09:59:18;4.35;;;3.22;;
28766;SDS011;15921;52.034;20.650;2023-05-07T10:01:45;3.78;;;2.33;;
28766;SDS011;15921;52.034;20.650;2023-05-07T10:04:11;3.45;;;2.13;;
28766;SDS011;15921;52.034;20.650;2023-05-07T10:06:37;8.30;;;3.03;;
28766;SDS011;15921;52.034;20.650;2023-05-07T10:09:04;5.93;;;2.25;;
28766;SDS011;15921;52.034;20.650;2023-05-07T10:11:31;6.13;;;2.45;;
28766;SDS011;15921;52.034;20.650;2023-05-07T10:13:59;8.15;;;2.40;;
28766;SDS011;15921;52.034;20.650;2023-05-07T10:16:27;3.55;;;2.20;;
28766;SDS011;15921;52.034;20.650;2023-05-07T10:19:06;4.22;;;2.50;;
28766;SDS011;15921;52.034;20.650;2023-05-07T10:22:05;4.35;;;2.72;;
28766;SDS011;15921;52.034;20.650;2023-05-07T10:24:29;4.95;;;2.20;;
28766;SDS011;15921;52.034;20.650;2023-05-07T10:26:59;8.15;;;2.55;;
28766;SDS011;15921;52.034;20.650;2023-05-07T10:29:38;3.22;;;2.17;;
28766;SDS011;15921;52.034;20.650;2023-05-07T10:34:44;3.50;;;2.03;;
28766;SDS011;15921;52.034;20.650;2023-05-07T10:37:12;5.60;;;2.17;;
28766;SDS011;15921;52.034;20.650;2023-05-07T10:39:39;5.70;;;2.85;;
28766;SDS011;15921;52.034;20.650;2023-05-07T10:42:10;5.00;;;3.33;;
28766;SDS011;15921;52.034;20.650;2023-05-07T10:44:36;5.80;;;2.28;;
28766;SDS011;15921;52.034;20.650;2023-05-07T10:47:12;5.72;;;2.25;;
28766;SDS011;15921;52.034;20.650;2023-05-07T10:52:14;5.13;;;2.63;;
28766;SDS011;15921;52.034;20.650;2023-05-07T10:54:46;3.60;;;2.25;;
28766;SDS011;15921;52.034;20.650;2023-05-07T10:57:57;5.10;;;2.35;;
28766;SDS011;15921;52.034;20.650;2023-05-07T11:00:04;4.68;;;2.15;;
28766;SDS011;15921;52.034;20.650;2023-05-07T11:05:25;6.40;;;2.90;;
28766;SDS011;15921;52.034;20.650;2023-05-07T11:08:01;4.03;;;2.35;;
28766;SDS011;15921;52.034;20.650;2023-05-07T11:13:13;3.60;;;2.45;;
28766;SDS011;15921;52.034;20.650;2023-05-07T11:15:41;4.93;;;2.42;;
28766;SDS011;15921;52.034;20.650;2023-05-07T11:18:09;5.55;;;2.38;;
28766;SDS011;15921;52.034;20.650;2023-05-07T11:20:46;5.25;;;2.70;;
28766;SDS011;15921;52.034;20.650;2023-05-07T11:26:06;5.35;;;2.63;;
28766;SDS011;15921;52.034;20.650;2023-05-07T11:28:36;7.13;;;2.47;;
28766;SDS011;15921;52.034;20.650;2023-05-07T11:31:03;7.32;;;2.92;;
28766;SDS011;15921;52.034;20.650;2023-05-07T11:33:29;5.80;;;2.35;;
28766;SDS011;15921;52.034;20.650;2023-05-07T11:35:56;3.28;;;2.50;;
28766;SDS011;15921;52.034;20.650;2023-05-07T11:38:22;3.67;;;2.30;;
28766;SDS011;15921;52.034;20.650;2023-05-07T11:40:49;8.30;;;2.83;;
28766;SDS011;15921;52.034;20.650;2023-05-07T11:43:18;3.20;;;2.20;;
28766;SDS011;15921;52.034;20.650;2023-05-07T11:45:45;5.15;;;2.53;;
28766;SDS011;15921;52.034;20.650;2023-05-07T11:48:14;4.32;;;2.13;;
28766;SDS011;15921;52.034;20.650;2023-05-07T11:50:50;3.97;;;2.13;;
28766;SDS011;15921;52.034;20.650;2023-05-07T11:53:17;7.78;;;2.20;;
28766;SDS011;15921;52.034;20.650;2023-05-07T11:55:44;7.63;;;2.30;;
28766;SDS011;15921;52.034;20.650;2023-05-07T11:58:12;4.68;;;2.13;;
28766;SDS011;15921;52.034;20.650;2023-05-07T12:00:48;4.75;;;2.00;;
28766;SDS011;15921;52.034;20.650;2023-05-07T12:03:18;8.07;;;2.17;;
28766;SDS011;15921;52.034;20.650;2023-05-07T12:05:45;7.60;;;2.90;;
28766;SDS011;15921;52.034;20.650;2023-05-07T12:08:18;4.90;;;2.00;;
28766;SDS011;15921;52.034;20.650;2023-05-07T12:10:45;5.63;;;2.35;;
28766;SDS011;15921;52.034;20.650;2023-05-07T12:13:19;4.03;;;1.90;;
28766;SDS011;15921;52.034;20.650;2023-05-07T12:15:50;4.95;;;2.13;;
28766;SDS011;15921;52.034;20.650;2023-05-07T12:18:16;2.85;;;2.00;;
28766;SDS011;15921;52.034;20.650;2023-05-07T12:20:42;3.35;;;2.05;;
28766;SDS011;15921;52.034;20.650;2023-05-07T12:23:10;6.15;;;2.45;;
28766;SDS011;15921;52.034;20.650;2023-05-07T12:25:36;5.80;;;2.33;;
28766;SDS011;15921;52.034;20.650;2023-05-07T12:28:12;4.28;;;2.30;;
28766;SDS011;15921;52.034;20.650;2023-05-07T12:30:40;2.63;;;2.20;;
28766;SDS011;15921;52.034;20.650;2023-05-07T12:33:06;3.08;;;2.30;;
28766;SDS011;15921;52.034;20.650;2023-05-07T12:35:37;3.80;;;2.22;;
28766;SDS011;15921;52.034;20.650;2023-05-07T12:38:09;5.25;;;2.72;;
28766;SDS011;15921;52.034;20.650;2023-05-07T12:40:40;11.95;;;2.40;;
28766;SDS011;15921;52.034;20.650;2023-05-07T12:43:08;6.13;;;2.20;;
28766;SDS011;15921;52.034;20.650;2023-05-07T12:45:50;6.32;;;3.95;;
28766;SDS011;15921;52.034;20.650;2023-05-07T12:48:16;12.05;;;6.47;;
28766;SDS011;15921;52.034;20.650;2023-05-07T12:50:44;8.45;;;4.95;;
28766;SDS011;15921;52.034;20.650;2023-05-07T12:53:10;10.52;;;4.20;;
28766;SDS011;15921;52.034;20.650;2023-05-07T12:55:44;8.93;;;4.47;;
28766;SDS011;15921;52.034;20.650;2023-05-07T12:58:15;6.68;;;3.00;;
28766;SDS011;15921;52.034;20.650;2023-05-07T13:00:51;10.52;;;4.85;;
28766;SDS011;15921;52.034;20.650;2023-05-07T13:03:21;9.77;;;4.05;;
28766;SDS011;15921;52.034;20.650;2023-05-07T13:05:49;5.63;;;2.78;;
28766;SDS011;15921;52.034;20.650;2023-05-07T13:08:28;4.45;;;2.72;;
28766;SDS011;15921;52.034;20.650;2023-05-07T13:10:56;8.88;;;3.78;;
28766;SDS011;15921;52.034;20.650;2023-05-07T13:13:23;11.93;;;5.18;;
28766;SDS011;15921;52.034;20.650;2023-05-07T13:15:48;11.50;;;5.30;;
28766;SDS011;15921;52.034;20.650;2023-05-07T13:18:14;9.02;;;4.25;;
28766;SDS011;15921;52.034;20.650;2023-05-07T13:20:40;15.38;;;6.47;;
28766;SDS011;15921;52.034;20.650;2023-05-07T13:23:05;8.55;;;4.20;;
28766;SDS011;15921;52.034;20.650;2023-05-07T13:25:31;12.60;;;3.88;;
28766;SDS011;15921;52.034;20.650;2023-05-07T13:27:57;6.20;;;3.08;;
28766;SDS011;15921;52.034;20.650;2023-05-07T13:30:23;3.67;;;2.20;;
28766;SDS011;15921;52.034;20.650;2023-05-07T13:32:48;7.38;;;3.10;;
28766;SDS011;15921;52.034;20.650;2023-05-07T13:35:15;12.30;;;3.75;;
28766;SDS011;15921;52.034;20.650;2023-05-07T13:37:41;6.78;;;3.95;;
28766;SDS011;15921;52.034;20.650;2023-05-07T13:40:07;8.13;;;3.08;;
28766;SDS011;15921;52.034;20.650;2023-05-07T13:42:33;3.60;;;2.30;;
28766;SDS011;15921;52.034;20.650;2023-05-07T13:44:59;6.32;;;3.05;;
28766;SDS011;15921;52.034;20.650;2023-05-07T13:47:25;5.03;;;2.47;;
28766;SDS011;15921;52.034;20.650;2023-05-07T13:49:50;5.25;;;2.95;;
28766;SDS011;15921;52.034;20.650;2023-05-07T13:52:16;7.40;;;3.03;;
28766;SDS011;15921;52.034;20.650;2023-05-07T13:54:42;5.60;;;3.70;;
28766;SDS011;15921;52.034;20.650;2023-05-07T13:57:08;3.35;;;2.45;;
28766;SDS011;15921;52.034;20.650;2023-05-07T13:59:33;3.83;;;2.25;;
28766;SDS011;15921;52.034;20.650;2023-05-07T14:01:59;4.18;;;2.10;;
28766;SDS011;15921;52.034;20.650;2023-05-07T14:04:25;2.78;;;1.70;;
28766;SDS011;15921;52.034;20.650;2023-05-07T14:06:51;5.55;;;3.15;;
28766;SDS011;15921;52.034;20.650;2023-05-07T14:09:16;5.63;;;3.53;;
28766;SDS011;15921;52.034;20.650;2023-05-07T14:11:42;4.38;;;2.45;;
28766;SDS011;15921;52.034;20.650;2023-05-07T14:14:08;6.32;;;3.25;;
28766;SDS011;15921;52.034;20.650;2023-05-07T14:16:36;4.47;;;2.80;;
28766;SDS011;15921;52.034;20.650;2023-05-07T14:19:02;4.75;;;2.90;;
28766;SDS011;15921;52.034;20.650;2023-05-07T14:21:28;5.47;;;3.13;;
28766;SDS011;15921;52.034;20.650;2023-05-07T14:23:55;5.13;;;2.50;;
28766;SDS011;15921;52.034;20.650;2023-05-07T14:26:21;4.38;;;2.30;;
28766;SDS011;15921;52.034;20.650;2023-05-07T14:28:48;7.43;;;2.55;;
28766;SDS011;15921;52.034;20.650;2023-05-07T14:31:14;6.50;;;2.05;;
28766;SDS011;15921;52.034;20.650;2023-05-07T14:33:40;6.88;;;2.40;;
28766;SDS011;15921;52.034;20.650;2023-05-07T14:36:06;5.93;;;2.10;;
28766;SDS011;15921;52.034;20.650;2023-05-07T14:38:31;6.43;;;2.88;;
28766;SDS011;15921;52.034;20.650;2023-05-07T14:40:58;2.60;;;2.33;;
28766;SDS011;15921;52.034;20.650;2023-05-07T14:43:23;8.55;;;1.90;;
28766;SDS011;15921;52.034;20.650;2023-05-07T14:45:49;5.07;;;2.30;;